Heron Island, Queensland

2:57 PM AEST on August 01, 2015 (GMT +1000)
Heron Island | | Change Station
CLOSE
Current Station
Personal Weather Station
Location: Queensland, QUEENSLAND
Elevation: 23 ft
Nearby Weather Stations

Elev 23 ft 23.44 °S, 151.91 °E | Updated 14 minutes ago

Clear
Clear
70.2 °F
Feels Like 77 °F
N
0.0
Wind Variable Wind from SSE
Gusts 0.0 mph

Today
High -- | Low -- °F
--% Chance of Precip.
Yesterday
High -- | Low -- °F
Precip. -- in
6:27 AM 5:30 PM
Full, 99% visible
Pressure 30.15 in
Visibility 6.2 miles
Clouds
Heat Index 77 °F
Dew Point 53 °F
Humidity 55%
Rainfall 0.00 in
Snow Depth Not available.
UV Not available.
Pollen Not available.
Air Quality Not available.
Flu Activity Not available.
METAR YGLA 010400Z AUTO 04009KT 9999 // NCD 23/12 Q1021

More Conditions Fewer Conditions

Pressure 30.15 in
Visibility 6.2 miles
Clouds
Heat Index 77 °F
Dew Point 53 °F
Humidity 55%
Rainfall 0.00 in
Snow Depth Not available.
UV Not available.
Pollen Not available.
Air Quality Not available.
Flu Activity Not available.
METAR YGLA 010400Z AUTO 04009KT 9999 // NCD 23/12 Q1021

More Conditions Fewer Conditions

10-Day Weather Forecast

×

Almanac

Astronomy

Aug. 01, 2015 Rise Set
Actual Time
Civil Twilight
Nautical Twilight
Astronomical Twilight
Moon
Length of Visible Light
Length of Day
Tomorrow will be .
, % of the Moon is Illuminated

Today's Extremes

Country Highs Country Lows

Community

WunderPhotos

Upload Photos

1,842,882 photos uploaded!

WunderBlogs® & News

Nearby

Air Quality

  Air Quality AQ Index Pollutant
Not available.

Snow Depth

Station Depth Elevation

Earthquake Activity

City Distance Mag. Time & Date
Minimum magnitude displayed is 2.5.

Coastal Water Temperatures

Place Temperature

Stations

Nearby Weather Stations

Station Location Temp. Windchill Dew Point Humidity Wind Precip. Elev Updated Type